Middle Wallop, United Kingdom
Current Conditions -  °F | °C
As of 8:50 AM on Wednesday 26 Nov 2014 (Local Time) from EGVP Reporting Station
Haze Haze  
Wind Chill: 45°   Ceiling: 100
Heat Index: 45°   Visibility: 0.93mi
Dew Point: 45°   Wind: 3mph
Humidity: 100%   Direction: 340°NNW
Pressure: 29.88"   Gusts: NA
Location:  51.15°N, 1.57°W
Report Text: EGVP 260850Z 34003KT 1500 BR OVC001 07/07 Q1012 RED TEMPO 0700 FG RED
Loading
Personal Weather Stations






























Interactive Weather Map New forecast layout! Learn more

10-Day Weather Forecast

Advertisements
Track Severe Weather on mobile